createdAt,value
2018-07-08T00:01:59.918Z,16.90
2018-07-08T00:04:29.731Z,17.00
2018-07-08T00:06:58.993Z,17.00
2018-07-08T00:09:27.977Z,16.90
2018-07-08T00:11:57.005Z,16.90
2018-07-08T00:14:28.210Z,16.80
2018-07-08T00:16:57.286Z,16.80
2018-07-08T00:19:26.368Z,16.70
2018-07-08T00:21:56.757Z,16.70
2018-07-08T00:24:25.755Z,16.70
2018-07-08T00:26:55.742Z,16.70
2018-07-08T00:29:24.934Z,16.80
2018-07-08T00:31:53.993Z,16.70
2018-07-08T00:34:22.978Z,16.70
2018-07-08T00:36:52.022Z,16.70
2018-07-08T00:39:21.024Z,16.70
2018-07-08T00:41:50.054Z,16.70
2018-07-08T00:44:19.051Z,16.70
2018-07-08T00:46:49.255Z,16.70
2018-07-08T00:49:18.262Z,16.50
2018-07-08T00:51:47.336Z,16.30
2018-07-08T00:54:16.352Z,16.30
2018-07-08T00:56:46.536Z,16.30
2018-07-08T00:59:15.590Z,16.20
2018-07-08T01:01:44.938Z,16.10
2018-07-08T01:04:13.896Z,16.20
2018-07-08T01:06:44.215Z,16.00
2018-07-08T01:09:13.310Z,15.80
2018-07-08T01:11:42.286Z,15.70
2018-07-08T01:14:11.353Z,15.80
2018-07-08T01:16:40.351Z,15.90
2018-07-08T01:19:09.481Z,15.70
2018-07-08T01:21:39.038Z,15.60
2018-07-08T01:24:08.466Z,15.40
2018-07-08T01:26:38.528Z,15.30
2018-07-08T01:29:07.538Z,15.20
2018-07-08T01:31:37.446Z,15.30
2018-07-08T01:34:07.026Z,15.20
2018-07-08T01:36:37.811Z,15.00
2018-07-08T01:39:07.960Z,14.80
2018-07-08T01:41:37.010Z,14.90
2018-07-08T01:44:06.179Z,14.80
2018-07-08T01:46:35.266Z,14.80
2018-07-08T01:49:04.315Z,14.80
2018-07-08T01:51:33.352Z,14.70
2018-07-08T01:54:02.405Z,14.70
2018-07-08T01:56:34.163Z,14.60
2018-07-08T01:59:04.738Z,14.50
2018-07-08T02:01:34.069Z,14.40
2018-07-08T02:04:03.084Z,14.50
2018-07-08T02:06:32.062Z,14.20
2018-07-08T02:09:04.559Z,14.20
2018-07-08T02:11:33.627Z,14.30
2018-07-08T02:14:02.837Z,14.50
2018-07-08T02:16:31.866Z,14.50
2018-07-08T02:19:01.834Z,14.40
2018-07-08T02:21:30.846Z,14.40
2018-07-08T02:24:00.218Z,14.50
2018-07-08T02:26:30.306Z,14.60
2018-07-08T02:28:59.778Z,14.70
2018-07-08T02:31:31.433Z,14.60
2018-07-08T02:34:00.511Z,14.70
2018-07-08T02:36:29.503Z,14.70
2018-07-08T02:38:58.938Z,14.80
2018-07-08T02:41:27.932Z,14.90
2018-07-08T02:43:56.930Z,15.10
2018-07-08T02:46:25.936Z,15.10
2018-07-08T02:48:55.025Z,15.10
2018-07-08T02:51:25.383Z,15.10
2018-07-08T02:53:54.391Z,15.20
2018-07-08T02:56:23.393Z,15.30
2018-07-08T02:58:52.417Z,15.40
2018-07-08T03:01:21.785Z,15.30
2018-07-08T03:03:51.563Z,15.30
2018-07-08T03:06:21.008Z,15.40
2018-07-08T03:08:50.067Z,15.50
2018-07-08T03:11:20.206Z,15.50
2018-07-08T03:13:49.238Z,15.60
2018-07-08T03:16:18.243Z,15.50
2018-07-08T03:18:47.264Z,15.40
2018-07-08T03:21:17.170Z,15.40
2018-07-08T03:23:47.017Z,15.40
2018-07-08T03:26:16.439Z,15.40
2018-07-08T03:28:45.986Z,15.60
2018-07-08T03:31:15.038Z,15.70
2018-07-08T03:33:46.083Z,15.80
2018-07-08T03:36:15.140Z,15.80
2018-07-08T03:38:44.185Z,15.80
2018-07-08T03:41:13.191Z,15.80
2018-07-08T03:43:42.237Z,15.80
2018-07-08T03:46:11.264Z,15.80
2018-07-08T03:48:40.278Z,15.80
2018-07-08T03:51:09.305Z,15.80
2018-07-08T03:53:38.335Z,15.90
2018-07-08T03:56:07.995Z,16.00
2018-07-08T03:58:37.056Z,16.00
2018-07-08T04:01:06.072Z,16.00
2018-07-08T04:03:35.938Z,16.00
2018-07-08T04:06:04.942Z,16.00
2018-07-08T04:08:33.970Z,16.00
2018-07-08T04:11:02.988Z,16.10
2018-07-08T04:13:32.057Z,16.10
2018-07-08T04:16:01.509Z,16.20
2018-07-08T04:18:30.947Z,16.20
2018-07-08T04:20:59.961Z,16.30
2018-07-08T04:23:29.797Z,16.20
2018-07-08T04:25:58.820Z,16.30
2018-07-08T04:28:27.930Z,16.30
2018-07-08T04:30:56.978Z,16.20
2018-07-08T04:33:26.044Z,16.40
2018-07-08T04:35:55.075Z,16.30
2018-07-08T04:38:24.076Z,16.30
2018-07-08T04:40:53.109Z,16.40
2018-07-08T04:43:22.239Z,16.50
2018-07-08T04:45:51.270Z,16.50
2018-07-08T04:48:21.057Z,16.50
2018-07-08T04:50:50.091Z,16.50
2018-07-08T04:53:19.113Z,16.60
2018-07-08T04:55:48.189Z,16.60
2018-07-08T04:58:17.224Z,16.60
2018-07-08T05:00:46.238Z,16.60
2018-07-08T05:03:16.024Z,16.60
2018-07-08T05:05:46.087Z,16.70
2018-07-08T05:08:15.064Z,16.60
2018-07-08T05:11:02.100Z,16.70
2018-07-08T05:13:32.238Z,16.60
2018-07-08T05:16:01.246Z,16.80
2018-07-08T05:18:30.757Z,16.80
2018-07-08T05:21:00.750Z,16.80
2018-07-08T05:23:29.798Z,16.90
2018-07-08T05:25:58.817Z,16.90
2018-07-08T05:28:27.804Z,17.00
2018-07-08T05:30:57.241Z,16.90
2018-07-08T05:33:26.441Z,17.00
2018-07-08T05:35:59.030Z,17.00
2018-07-08T05:38:28.070Z,17.00
2018-07-08T05:40:57.706Z,17.10
2018-07-08T05:43:26.799Z,17.10
2018-07-08T05:45:59.516Z,17.10
2018-07-08T05:48:29.025Z,17.10
2018-07-08T05:50:59.758Z,17.10
2018-07-08T05:53:28.777Z,17.20
2018-07-08T05:55:59.591Z,17.30
2018-07-08T05:58:28.590Z,17.30
2018-07-08T06:00:57.663Z,17.40
2018-07-08T06:03:26.692Z,17.40
2018-07-08T06:05:56.075Z,17.20
2018-07-08T06:08:25.100Z,17.20
2018-07-08T06:10:54.370Z,17.10
2018-07-08T06:13:23.367Z,17.10
2018-07-08T06:15:53.023Z,17.10
2018-07-08T06:18:22.087Z,17.30
2018-07-08T06:20:51.125Z,17.40
2018-07-08T06:23:21.064Z,17.50
2018-07-08T06:25:50.088Z,17.50
2018-07-08T06:28:19.086Z,17.50
2018-07-08T06:30:48.978Z,17.50
2018-07-08T06:33:17.949Z,17.60
2018-07-08T06:35:46.975Z,17.60
2018-07-08T06:38:16.035Z,17.60
2018-07-08T06:40:45.039Z,17.70
2018-07-08T06:43:14.038Z,17.70
2018-07-08T06:45:43.064Z,17.80
2018-07-08T06:48:12.108Z,17.80
2018-07-08T06:50:41.140Z,17.70
2018-07-08T06:55:40.024Z,17.90
2018-07-08T06:58:09.010Z,17.90
2018-07-08T07:00:38.819Z,18.00
2018-07-08T07:03:08.928Z,18.00
2018-07-08T07:05:38.883Z,18.20
2018-07-08T07:08:07.938Z,18.30
2018-07-08T07:10:37.008Z,18.30
2018-07-08T07:13:06.484Z,18.40
2018-07-08T07:15:36.242Z,18.50
2018-07-08T07:18:05.289Z,18.50
2018-07-08T07:20:34.323Z,18.50
2018-07-08T07:23:03.402Z,18.40
2018-07-08T07:43:03.713Z,20.80
2018-07-08T07:45:32.725Z,21.10
2018-07-08T07:48:01.829Z,21.50
2018-07-08T07:50:30.849Z,21.90
2018-07-08T07:52:59.915Z,22.60
2018-07-08T07:55:28.983Z,24.00
2018-07-08T07:57:57.957Z,25.80
2018-07-08T08:00:27.169Z,26.50
2018-07-08T08:02:57.858Z,28.60
2018-07-08T08:05:26.864Z,30.90
2018-07-08T08:07:55.847Z,32.80
2018-07-08T08:10:24.801Z,34.20
2018-07-08T08:12:55.361Z,35.50
2018-07-08T08:15:26.605Z,34.90
2018-07-08T08:17:55.647Z,34.60
2018-07-08T08:22:54.813Z,34.00
2018-07-08T08:25:24.621Z,33.80
2018-07-08T08:27:55.375Z,34.90
2018-07-08T08:30:24.330Z,35.40
2018-07-08T08:32:53.327Z,35.50
2018-07-08T08:35:22.379Z,35.70
2018-07-08T08:37:57.246Z,34.80
2018-07-08T08:40:27.554Z,33.10
2018-07-08T08:42:56.699Z,30.70
2018-07-08T08:45:27.089Z,29.60
2018-07-08T08:47:56.086Z,28.70
2018-07-08T08:50:25.077Z,28.10
2018-07-08T08:52:54.094Z,27.60
2018-07-08T08:57:52.834Z,26.60
2018-07-08T09:00:21.831Z,26.20
2018-07-08T09:02:51.493Z,25.70
2018-07-08T09:05:20.860Z,25.60
2018-07-08T09:07:49.876Z,25.40
2018-07-08T09:10:19.803Z,25.40
2018-07-08T09:12:49.856Z,25.50
2018-07-08T09:15:21.684Z,25.30
2018-07-08T09:17:50.832Z,25.20
2018-07-08T09:20:20.055Z,25.20
2018-07-08T09:22:49.300Z,25.20
2018-07-08T09:25:18.531Z,24.70
2018-07-08T09:27:47.731Z,24.90
2018-07-08T09:30:16.865Z,25.00
2018-07-08T09:32:46.097Z,24.90
2018-07-08T09:35:15.287Z,24.80
2018-07-08T09:37:44.493Z,24.40
2018-07-08T09:40:13.646Z,24.60
2018-07-08T09:42:42.957Z,25.60
2018-07-08T09:45:12.138Z,25.40
2018-07-08T09:47:41.341Z,26.00
2018-07-08T09:50:10.503Z,26.70
2018-07-08T09:52:39.761Z,27.00
2018-07-08T09:55:08.872Z,29.30
2018-07-08T09:57:38.082Z,31.20
2018-07-08T10:00:07.737Z,31.70
2018-07-08T10:02:36.924Z,30.60
2018-07-08T10:05:06.124Z,29.40
2018-07-08T10:07:35.265Z,29.30
2018-07-08T10:10:04.535Z,29.00
2018-07-08T10:12:33.716Z,30.30
2018-07-08T10:15:02.892Z,29.50
2018-07-08T10:17:32.195Z,29.10
2018-07-08T10:20:01.292Z,27.80
2018-07-08T10:22:30.278Z,28.10
2018-07-08T10:25:00.118Z,27.40
2018-07-08T10:28:39.149Z,27.30
2018-07-08T10:31:13.679Z,27.30
2018-07-08T10:33:55.081Z,27.80
2018-07-08T10:36:24.207Z,28.20
2018-07-08T10:38:53.218Z,30.90
2018-07-08T10:41:22.611Z,33.70
2018-07-08T10:46:22.659Z,31.70
2018-07-08T10:48:52.210Z,30.10
2018-07-08T10:51:21.195Z,28.20
2018-07-08T10:56:21.596Z,27.70
2018-07-08T10:58:50.601Z,27.40
2018-07-08T11:01:20.137Z,27.30
2018-07-08T11:03:50.095Z,26.80
2018-07-08T11:06:20.671Z,26.70
2018-07-08T11:08:49.689Z,26.50
2018-07-08T11:11:19.783Z,26.50
2018-07-08T11:13:50.964Z,26.40
2018-07-08T11:16:19.988Z,26.40
2018-07-08T11:18:49.800Z,25.90
2018-07-08T11:21:19.490Z,25.60
2018-07-08T11:23:48.514Z,25.40
2018-07-08T11:26:18.167Z,25.20
2018-07-08T11:28:47.164Z,25.10
2018-07-08T11:31:16.166Z,25.00
2018-07-08T11:33:45.666Z,25.20
2018-07-08T11:36:14.774Z,25.30
2018-07-08T11:38:43.741Z,25.30
2018-07-08T11:41:12.756Z,25.30
2018-07-08T11:43:42.152Z,25.20
2018-07-08T11:46:11.797Z,24.90
2018-07-08T11:48:40.837Z,24.90
2018-07-08T11:51:09.911Z,24.80
2018-07-08T11:53:39.513Z,24.80
2018-07-08T11:56:08.522Z,24.90
2018-07-08T11:58:37.507Z,25.00
2018-07-08T12:01:06.599Z,25.10
2018-07-08T12:03:35.582Z,25.20
2018-07-08T12:06:04.595Z,25.20
2018-07-08T12:08:34.334Z,25.30
2018-07-08T12:11:03.398Z,25.30
2018-07-08T12:13:33.595Z,25.20
2018-07-08T12:16:02.681Z,25.30
2018-07-08T12:18:32.050Z,25.30
2018-07-08T12:21:01.041Z,25.40
2018-07-08T12:23:32.715Z,25.30
2018-07-08T12:26:01.791Z,25.10
2018-07-08T12:28:32.003Z,25.00
2018-07-08T12:31:01.132Z,25.10
2018-07-08T12:33:30.114Z,24.80
2018-07-08T12:35:59.134Z,24.70
2018-07-08T12:38:28.166Z,24.90
2018-07-08T12:40:57.186Z,25.00
2018-07-08T12:43:27.513Z,25.20
2018-07-08T12:45:56.514Z,25.30
2018-07-08T12:48:25.584Z,25.40
2018-07-08T12:50:56.522Z,25.50
2018-07-08T12:53:25.537Z,25.50
2018-07-08T12:55:55.349Z,25.60
2018-07-08T12:58:24.407Z,25.70
2018-07-08T13:00:53.406Z,25.60
2018-07-08T13:03:23.195Z,25.70
2018-07-08T13:05:52.215Z,25.70
2018-07-08T13:08:21.219Z,25.70
2018-07-08T13:10:50.218Z,25.70
2018-07-08T13:13:19.764Z,25.70
2018-07-08T13:15:48.840Z,25.50
2018-07-08T13:18:19.913Z,25.60
2018-07-08T13:20:48.918Z,25.60
2018-07-08T13:23:18.451Z,25.50
2018-07-08T13:25:48.602Z,25.40
2018-07-08T13:28:17.612Z,25.50
2018-07-08T13:30:47.081Z,25.60
2018-07-08T13:33:16.973Z,25.70
2018-07-08T13:35:46.022Z,25.70
2018-07-08T13:38:15.028Z,25.80
2018-07-08T13:40:44.050Z,25.90
2018-07-08T13:43:14.134Z,25.90
2018-07-08T13:45:43.097Z,25.90
2018-07-08T13:48:12.087Z,25.90
2018-07-08T13:50:41.432Z,25.80
2018-07-08T13:53:10.823Z,25.70
2018-07-08T13:55:39.897Z,25.70
2018-07-08T13:58:08.896Z,25.70
2018-07-08T14:00:38.289Z,25.40
2018-07-08T14:03:07.304Z,25.50
2018-07-08T14:05:36.761Z,25.50
2018-07-08T14:08:06.087Z,25.50
2018-07-08T14:10:36.251Z,25.50
2018-07-08T14:13:06.171Z,25.60
2018-07-08T14:15:35.225Z,25.70
2018-07-08T14:18:04.276Z,25.80
2018-07-08T14:20:33.309Z,25.70
2018-07-08T14:23:02.331Z,25.70
2018-07-08T14:25:31.311Z,25.70
2018-07-08T14:28:00.351Z,25.80
2018-07-08T14:30:29.926Z,25.90
2018-07-08T14:33:00.898Z,26.10
2018-07-08T14:35:29.856Z,26.20
2018-07-08T14:37:58.875Z,26.10
2018-07-08T14:40:27.926Z,26.00
2018-07-08T14:42:56.937Z,25.90
2018-07-08T14:45:25.907Z,25.90
2018-07-08T14:47:54.927Z,26.00
2018-07-08T14:50:23.963Z,26.00
2018-07-08T14:52:54.300Z,26.00
2018-07-08T14:55:23.363Z,25.90
2018-07-08T14:57:52.831Z,26.00
2018-07-08T15:00:22.488Z,26.00
2018-07-08T15:02:52.479Z,26.10
2018-07-08T15:05:21.446Z,26.00
2018-07-08T15:07:50.766Z,25.90
2018-07-08T15:10:20.917Z,25.90
2018-07-08T15:12:51.546Z,25.90
2018-07-08T15:15:23.229Z,25.90
2018-07-08T15:17:52.702Z,25.90
2018-07-08T15:20:21.761Z,25.80
2018-07-08T15:22:50.796Z,25.80
2018-07-08T15:25:19.787Z,25.70
2018-07-08T15:27:49.408Z,25.70
2018-07-08T15:30:19.025Z,25.60
2018-07-08T15:32:51.983Z,25.60
2018-07-08T15:35:21.495Z,25.50
2018-07-08T15:37:54.363Z,25.60
2018-07-08T15:40:25.097Z,25.70
2018-07-08T15:42:54.132Z,25.80
2018-07-08T15:45:23.124Z,25.80
2018-07-08T15:47:52.097Z,25.80
2018-07-08T15:50:21.618Z,25.90
2018-07-08T15:52:50.622Z,25.60
2018-07-08T15:55:19.618Z,25.70
2018-07-08T15:57:49.206Z,25.70
2018-07-08T16:00:19.439Z,25.70
2018-07-08T16:02:49.074Z,25.80
2018-07-08T16:05:18.655Z,25.60
2018-07-08T16:07:47.685Z,25.60
2018-07-08T16:10:16.672Z,25.60
2018-07-08T16:12:45.685Z,25.70
2018-07-08T16:15:14.678Z,25.70
2018-07-08T16:17:44.199Z,25.70
2018-07-08T16:20:14.987Z,25.70
2018-07-08T16:22:45.310Z,25.70
2018-07-08T16:25:14.350Z,25.70
2018-07-08T16:27:43.390Z,25.70
2018-07-08T16:30:13.082Z,25.70
2018-07-08T16:32:42.081Z,25.70
2018-07-08T16:35:12.285Z,25.70
2018-07-08T16:37:42.151Z,25.80
2018-07-08T16:40:13.266Z,25.80
2018-07-08T16:42:42.632Z,25.70
2018-07-08T16:45:11.700Z,25.50
2018-07-08T16:47:41.522Z,25.50
2018-07-08T16:50:10.715Z,25.60
2018-07-08T16:52:40.711Z,25.60
2018-07-08T16:55:10.824Z,25.60
2018-07-08T16:57:39.839Z,25.60
2018-07-08T17:00:08.830Z,25.50
2018-07-08T17:02:37.826Z,25.50
2018-07-08T17:05:06.842Z,25.50
2018-07-08T17:07:35.879Z,25.50
2018-07-08T17:10:05.486Z,25.50
2018-07-08T17:12:34.501Z,25.50
2018-07-08T17:15:04.029Z,25.40
2018-07-08T17:17:34.473Z,25.40
2018-07-08T17:20:03.579Z,25.40
2018-07-08T17:22:48.788Z,25.30
2018-07-08T17:25:19.160Z,25.30
2018-07-08T17:27:48.854Z,25.20
2018-07-08T17:30:18.251Z,25.20
2018-07-08T17:32:48.657Z,25.30
2018-07-08T17:35:18.889Z,25.20
2018-07-08T17:37:48.044Z,25.10
2018-07-08T17:40:18.885Z,25.10
2018-07-08T17:42:47.829Z,25.00
2018-07-08T17:45:16.864Z,25.00
2018-07-08T17:47:46.336Z,24.90
2018-07-08T17:50:15.966Z,24.80
2018-07-08T17:52:47.255Z,24.80
2018-07-08T17:55:18.236Z,24.80
2018-07-08T17:57:48.148Z,24.70
2018-07-08T18:00:17.169Z,24.70
2018-07-08T18:02:46.918Z,24.70
2018-07-08T18:05:15.872Z,24.80
2018-07-08T18:07:46.250Z,24.70
2018-07-08T18:10:15.225Z,24.70
2018-07-08T18:12:45.145Z,24.60
2018-07-08T18:15:15.893Z,24.60
2018-07-08T18:17:44.868Z,24.50
2018-07-08T18:20:13.867Z,24.40
2018-07-08T18:22:42.877Z,24.40
2018-07-08T18:25:14.286Z,24.40
2018-07-08T18:27:45.697Z,24.30
2018-07-08T18:30:15.246Z,24.20
2018-07-08T18:32:45.485Z,24.20
2018-07-08T18:35:18.962Z,24.10
2018-07-08T18:37:47.897Z,24.10
2018-07-08T18:40:18.864Z,24.00
2018-07-08T18:42:49.050Z,23.90
2018-07-08T18:45:20.550Z,23.90
2018-07-08T18:47:50.004Z,23.90
2018-07-08T18:50:19.027Z,23.80
2018-07-08T18:52:49.537Z,23.80
2018-07-08T18:55:18.773Z,23.70
2018-07-08T18:57:47.757Z,23.70
2018-07-08T19:00:18.567Z,23.60
2018-07-08T19:02:48.329Z,23.50
2018-07-08T19:05:18.716Z,23.50
2018-07-08T19:07:47.697Z,23.50
2018-07-08T19:10:16.717Z,23.40
2018-07-08T19:12:45.704Z,23.40
2018-07-08T19:15:14.749Z,23.30
2018-07-08T19:17:46.619Z,23.20
2018-07-08T19:20:16.103Z,23.10
2018-07-08T19:22:48.420Z,23.10
2018-07-08T19:25:17.398Z,23.00
2018-07-08T19:27:47.006Z,22.90
2018-07-08T19:30:17.429Z,22.90
2018-07-08T19:32:48.010Z,22.80
2018-07-08T19:35:17.079Z,22.70
2018-07-08T19:37:47.527Z,22.70
2018-07-08T19:40:18.574Z,22.70
2018-07-08T19:42:47.938Z,22.60
2018-07-08T19:45:17.408Z,22.60
2018-07-08T19:47:46.381Z,22.50
2018-07-08T19:50:18.093Z,22.40
2018-07-08T19:52:47.598Z,22.40
2018-07-08T19:55:16.622Z,22.30
2018-07-08T19:57:47.297Z,22.30
2018-07-08T20:00:16.778Z,22.30
2018-07-08T20:02:46.493Z,22.20
2018-07-08T20:05:17.085Z,22.10
2018-07-08T20:07:47.188Z,22.00
2018-07-08T20:10:16.237Z,21.90
2018-07-08T20:12:47.534Z,21.90
2018-07-08T20:15:18.161Z,21.80
2018-07-08T20:17:47.578Z,21.80
2018-07-08T20:20:16.599Z,21.70
2018-07-08T20:22:45.561Z,21.70
2018-07-08T20:25:14.506Z,21.60
2018-07-08T20:27:43.923Z,21.60
2018-07-08T20:30:12.940Z,21.50
2018-07-08T20:32:42.657Z,21.50
2018-07-08T20:35:11.610Z,21.40
2018-07-08T20:37:40.639Z,21.40
2018-07-08T20:40:09.592Z,21.40
2018-07-08T20:42:39.137Z,21.30
2018-07-08T20:45:08.315Z,21.20
2018-07-08T20:47:37.338Z,21.30
2018-07-08T20:50:06.306Z,21.30
2018-07-08T20:52:35.309Z,21.30
2018-07-08T20:55:06.370Z,21.20
2018-07-08T20:57:37.345Z,21.10
2018-07-08T21:00:06.277Z,21.00
2018-07-08T21:02:36.000Z,21.00
2018-07-08T21:05:05.954Z,20.90
2018-07-08T21:07:35.557Z,20.90
2018-07-08T21:10:04.843Z,20.90
2018-07-08T21:12:33.913Z,20.80
2018-07-08T21:15:05.424Z,20.60
2018-07-08T21:17:35.090Z,20.50
2018-07-08T21:20:05.261Z,20.50
2018-07-08T21:22:34.872Z,20.50
2018-07-08T21:25:03.972Z,20.50
2018-07-08T21:27:35.615Z,20.50
2018-07-08T21:30:05.664Z,20.50
2018-07-08T21:32:37.824Z,20.40
2018-07-08T21:35:10.154Z,20.30
2018-07-08T21:37:41.142Z,20.10
2018-07-08T21:40:12.122Z,20.10
2018-07-08T21:42:44.001Z,20.10
2018-07-08T21:45:14.370Z,20.20
2018-07-08T21:47:44.714Z,20.00
2018-07-08T21:50:14.238Z,20.00
2018-07-08T21:52:43.254Z,19.80
2018-07-08T21:55:13.521Z,19.80
2018-07-08T21:57:42.773Z,19.90
2018-07-08T22:00:12.547Z,19.80
2018-07-08T22:02:44.575Z,19.80
2018-07-08T22:05:14.220Z,19.70
2018-07-08T22:07:48.546Z,19.70
2018-07-08T22:10:19.170Z,19.60
2018-07-08T22:12:48.967Z,19.70
2018-07-08T22:15:19.016Z,19.50
2018-07-08T22:17:48.778Z,19.40
2018-07-08T22:20:18.938Z,19.40
2018-07-08T22:22:49.999Z,19.50
2018-07-08T22:25:19.787Z,19.50
2018-07-08T22:27:49.066Z,19.40
2018-07-08T22:30:18.007Z,19.30
2018-07-08T22:32:46.988Z,19.30
2018-07-08T22:35:16.661Z,19.30
2018-07-08T22:37:48.074Z,19.20
2018-07-08T22:40:17.523Z,19.00
2018-07-08T22:42:46.484Z,18.90
2018-07-08T22:45:15.447Z,18.80
2018-07-08T22:47:44.405Z,18.80
2018-07-08T22:50:13.991Z,18.80
2018-07-08T23:10:22.494Z,18.50
2018-07-08T23:12:52.146Z,18.30
2018-07-08T23:15:21.136Z,18.30
2018-07-08T23:17:50.124Z,18.00
2018-07-08T23:20:20.593Z,18.00
2018-07-08T23:23:00.337Z,18.00
2018-07-08T23:25:29.302Z,18.10
2018-07-08T23:28:01.517Z,18.00
2018-07-08T23:30:31.269Z,17.90
2018-07-08T23:33:00.270Z,17.80
2018-07-08T23:35:31.573Z,17.60
2018-07-08T23:38:02.490Z,17.50
2018-07-08T23:40:32.582Z,17.60
2018-07-08T23:43:02.751Z,17.60
2018-07-08T23:45:31.718Z,17.70
2018-07-08T23:48:00.900Z,17.70
2018-07-08T23:50:29.876Z,17.60
2018-07-08T23:52:58.879Z,17.60
2018-07-08T23:55:29.512Z,17.60
2018-07-08T23:57:59.646Z,17.50
